sensor_id;sensor_type;location;lat;lon;timestamp;temperature;humidity
32173;DHT22;18679;45.190;5.722;2022-08-01T00:02:20;30.90;30.00
32173;DHT22;18679;45.190;5.722;2022-08-01T00:05:21;30.80;30.00
32173;DHT22;18679;45.190;5.722;2022-08-01T00:08:22;30.80;30.10
32173;DHT22;18679;45.190;5.722;2022-08-01T00:11:23;30.80;30.10
32173;DHT22;18679;45.190;5.722;2022-08-01T00:14:24;30.70;30.10
32173;DHT22;18679;45.190;5.722;2022-08-01T00:17:25;30.80;30.30
32173;DHT22;18679;45.190;5.722;2022-08-01T00:20:26;30.70;30.60
32173;DHT22;18679;45.190;5.722;2022-08-01T00:23:26;30.60;30.60
32173;DHT22;18679;45.190;5.722;2022-08-01T00:26:27;30.60;30.80
32173;DHT22;18679;45.190;5.722;2022-08-01T00:29:28;30.50;30.90
32173;DHT22;18679;45.190;5.722;2022-08-01T00:32:32;30.40;31.10
32173;DHT22;18679;45.190;5.722;2022-08-01T00:35:33;30.30;31.50
32173;DHT22;18679;45.190;5.722;2022-08-01T00:38:34;30.20;31.80
32173;DHT22;18679;45.190;5.722;2022-08-01T00:41:35;30.10;32.00
32173;DHT22;18679;45.190;5.722;2022-08-01T00:44:37;30.00;32.20
32173;DHT22;18679;45.190;5.722;2022-08-01T00:47:38;29.90;32.30
32173;DHT22;18679;45.190;5.722;2022-08-01T00:50:39;29.80;32.40
32173;DHT22;18679;45.190;5.722;2022-08-01T00:53:40;29.70;32.40
32173;DHT22;18679;45.190;5.722;2022-08-01T00:56:41;29.70;32.50
32173;DHT22;18679;45.190;5.722;2022-08-01T00:59:42;29.60;32.60
32173;DHT22;18679;45.190;5.722;2022-08-01T01:02:43;29.50;32.70
32173;DHT22;18679;45.190;5.722;2022-08-01T01:05:56;29.30;32.70
32173;DHT22;18679;45.190;5.722;2022-08-01T01:15:30;29.30;33.00
32173;DHT22;18679;45.190;5.722;2022-08-01T01:19:03;29.20;33.20
32173;DHT22;18679;45.190;5.722;2022-08-01T01:23:15;29.20;33.40
32173;DHT22;18679;45.190;5.722;2022-08-01T01:32:24;29.10;33.50
32173;DHT22;18679;45.190;5.722;2022-08-01T01:35:31;29.00;33.40
32173;DHT22;18679;45.190;5.722;2022-08-01T01:38:36;29.00;33.50
32173;DHT22;18679;45.190;5.722;2022-08-01T01:41:38;29.00;33.60
32173;DHT22;18679;45.190;5.722;2022-08-01T01:44:41;29.00;33.70
32173;DHT22;18679;45.190;5.722;2022-08-01T01:47:45;29.00;33.90
32173;DHT22;18679;45.190;5.722;2022-08-01T01:50:49;29.00;33.90
32173;DHT22;18679;45.190;5.722;2022-08-01T01:53:53;29.00;34.10
32173;DHT22;18679;45.190;5.722;2022-08-01T01:56:57;28.90;34.20
32173;DHT22;18679;45.190;5.722;2022-08-01T01:59:59;28.80;34.30
32173;DHT22;18679;45.190;5.722;2022-08-01T02:03:02;28.80;34.40
32173;DHT22;18679;45.190;5.722;2022-08-01T02:06:04;28.80;34.50
32173;DHT22;18679;45.190;5.722;2022-08-01T02:09:07;28.70;34.60
32173;DHT22;18679;45.190;5.722;2022-08-01T02:12:12;28.70;34.70
32173;DHT22;18679;45.190;5.722;2022-08-01T02:15:15;28.60;35.00
32173;DHT22;18679;45.190;5.722;2022-08-01T02:18:18;28.60;35.30
32173;DHT22;18679;45.190;5.722;2022-08-01T02:21:26;28.50;35.70
32173;DHT22;18679;45.190;5.722;2022-08-01T02:24:50;28.40;36.10
32173;DHT22;18679;45.190;5.722;2022-08-01T02:28:15;28.20;36.20
32173;DHT22;18679;45.190;5.722;2022-08-01T02:31:21;28.20;36.30
32173;DHT22;18679;45.190;5.722;2022-08-01T02:34:23;28.10;36.40
32173;DHT22;18679;45.190;5.722;2022-08-01T02:37:26;28.10;36.50
32173;DHT22;18679;45.190;5.722;2022-08-01T02:40:33;28.00;36.50
32173;DHT22;18679;45.190;5.722;2022-08-01T02:43:37;28.00;36.70
32173;DHT22;18679;45.190;5.722;2022-08-01T02:46:43;28.00;36.60
32173;DHT22;18679;45.190;5.722;2022-08-01T02:49:48;28.00;36.70
32173;DHT22;18679;45.190;5.722;2022-08-01T02:52:51;28.00;36.80
32173;DHT22;18679;45.190;5.722;2022-08-01T02:55:54;27.90;37.00
32173;DHT22;18679;45.190;5.722;2022-08-01T02:58:55;27.90;37.30
32173;DHT22;18679;45.190;5.722;2022-08-01T03:01:57;27.90;37.30
32173;DHT22;18679;45.190;5.722;2022-08-01T03:05:00;27.80;37.40
32173;DHT22;18679;45.190;5.722;2022-08-01T03:08:03;27.80;37.50
32173;DHT22;18679;45.190;5.722;2022-08-01T03:11:05;27.70;37.40
32173;DHT22;18679;45.190;5.722;2022-08-01T03:14:09;27.70;37.50
32173;DHT22;18679;45.190;5.722;2022-08-01T03:17:11;27.60;37.40
32173;DHT22;18679;45.190;5.722;2022-08-01T03:20:14;27.60;37.50
32173;DHT22;18679;45.190;5.722;2022-08-01T03:23:15;27.60;37.50
32173;DHT22;18679;45.190;5.722;2022-08-01T03:26:18;27.60;37.80
32173;DHT22;18679;45.190;5.722;2022-08-01T03:29:23;27.50;37.80
32173;DHT22;18679;45.190;5.722;2022-08-01T03:32:27;27.40;37.90
32173;DHT22;18679;45.190;5.722;2022-08-01T03:35:36;27.40;38.10
32173;DHT22;18679;45.190;5.722;2022-08-01T03:38:39;27.40;38.30
32173;DHT22;18679;45.190;5.722;2022-08-01T03:41:46;27.30;38.30
32173;DHT22;18679;45.190;5.722;2022-08-01T03:44:52;27.30;38.30
32173;DHT22;18679;45.190;5.722;2022-08-01T03:48:05;27.30;38.40
32173;DHT22;18679;45.190;5.722;2022-08-01T03:51:07;27.30;38.50
32173;DHT22;18679;45.190;5.722;2022-08-01T03:54:10;27.30;38.70
32173;DHT22;18679;45.190;5.722;2022-08-01T03:57:14;27.30;38.80
32173;DHT22;18679;45.190;5.722;2022-08-01T04:00:16;27.30;39.10
32173;DHT22;18679;45.190;5.722;2022-08-01T04:03:19;27.20;39.30
32173;DHT22;18679;45.190;5.722;2022-08-01T04:06:20;27.20;39.30
32173;DHT22;18679;45.190;5.722;2022-08-01T04:09:21;27.10;39.20
32173;DHT22;18679;45.190;5.722;2022-08-01T04:12:22;27.10;39.30
32173;DHT22;18679;45.190;5.722;2022-08-01T04:15:23;27.00;39.50
32173;DHT22;18679;45.190;5.722;2022-08-01T04:18:24;26.90;39.60
32173;DHT22;18679;45.190;5.722;2022-08-01T04:21:27;26.80;39.90
32173;DHT22;18679;45.190;5.722;2022-08-01T04:24:30;26.70;40.10
32173;DHT22;18679;45.190;5.722;2022-08-01T04:27:36;26.60;40.20
32173;DHT22;18679;45.190;5.722;2022-08-01T04:30:39;26.60;40.20
32173;DHT22;18679;45.190;5.722;2022-08-01T04:33:45;26.50;40.20
32173;DHT22;18679;45.190;5.722;2022-08-01T04:36:48;26.50;40.30
32173;DHT22;18679;45.190;5.722;2022-08-01T04:39:51;26.50;40.50
32173;DHT22;18679;45.190;5.722;2022-08-01T04:42:53;26.50;40.50
32173;DHT22;18679;45.190;5.722;2022-08-01T04:45:55;26.40;40.40
32173;DHT22;18679;45.190;5.722;2022-08-01T04:48:56;26.30;40.50
32173;DHT22;18679;45.190;5.722;2022-08-01T04:51:58;26.30;40.70
32173;DHT22;18679;45.190;5.722;2022-08-01T04:55:00;26.30;40.80
32173;DHT22;18679;45.190;5.722;2022-08-01T04:58:01;26.30;40.90
32173;DHT22;18679;45.190;5.722;2022-08-01T05:01:03;26.30;41.10
32173;DHT22;18679;45.190;5.722;2022-08-01T05:04:04;26.20;40.90
32173;DHT22;18679;45.190;5.722;2022-08-01T05:07:05;26.20;40.90
32173;DHT22;18679;45.190;5.722;2022-08-01T05:10:06;26.20;40.90
32173;DHT22;18679;45.190;5.722;2022-08-01T05:13:08;26.20;41.00
32173;DHT22;18679;45.190;5.722;2022-08-01T05:16:09;26.20;41.00
32173;DHT22;18679;45.190;5.722;2022-08-01T05:19:10;26.20;41.20
32173;DHT22;18679;45.190;5.722;2022-08-01T05:22:11;26.20;41.30
32173;DHT22;18679;45.190;5.722;2022-08-01T05:25:12;26.30;41.60
32173;DHT22;18679;45.190;5.722;2022-08-01T05:28:13;26.10;41.50
32173;DHT22;18679;45.190;5.722;2022-08-01T05:31:13;26.30;41.60
32173;DHT22;18679;45.190;5.722;2022-08-01T05:34:14;26.30;41.70
32173;DHT22;18679;45.190;5.722;2022-08-01T05:37:15;26.10;41.60
32173;DHT22;18679;45.190;5.722;2022-08-01T05:40:16;26.30;41.80
32173;DHT22;18679;45.190;5.722;2022-08-01T05:43:17;26.30;41.80
32173;DHT22;18679;45.190;5.722;2022-08-01T05:46:18;26.30;41.70
32173;DHT22;18679;45.190;5.722;2022-08-01T05:49:19;26.40;41.70
32173;DHT22;18679;45.190;5.722;2022-08-01T05:52:20;26.40;41.60
32173;DHT22;18679;45.190;5.722;2022-08-01T05:55:21;26.50;41.50
32173;DHT22;18679;45.190;5.722;2022-08-01T05:58:22;26.60;41.40
32173;DHT22;18679;45.190;5.722;2022-08-01T06:01:23;26.70;41.30
32173;DHT22;18679;45.190;5.722;2022-08-01T06:04:24;26.70;41.90
32173;DHT22;18679;45.190;5.722;2022-08-01T06:07:25;26.70;41.20
32173;DHT22;18679;45.190;5.722;2022-08-01T06:10:26;26.80;41.30
32173;DHT22;18679;45.190;5.722;2022-08-01T06:13:26;26.80;41.30
32173;DHT22;18679;45.190;5.722;2022-08-01T06:16:27;26.90;41.40
32173;DHT22;18679;45.190;5.722;2022-08-01T06:19:28;26.90;41.50
32173;DHT22;18679;45.190;5.722;2022-08-01T06:22:29;26.80;41.40
32173;DHT22;18679;45.190;5.722;2022-08-01T06:25:30;26.80;41.50
32173;DHT22;18679;45.190;5.722;2022-08-01T06:28:31;26.80;41.30
32173;DHT22;18679;45.190;5.722;2022-08-01T06:31:32;26.80;41.30
32173;DHT22;18679;45.190;5.722;2022-08-01T06:34:33;26.80;41.20
32173;DHT22;18679;45.190;5.722;2022-08-01T06:37:34;26.80;41.00
32173;DHT22;18679;45.190;5.722;2022-08-01T06:40:36;26.90;41.00
32173;DHT22;18679;45.190;5.722;2022-08-01T06:43:37;27.00;40.80
32173;DHT22;18679;45.190;5.722;2022-08-01T06:46:38;27.00;40.70
32173;DHT22;18679;45.190;5.722;2022-08-01T06:49:39;27.10;40.50
32173;DHT22;18679;45.190;5.722;2022-08-01T06:52:41;27.10;40.40
32173;DHT22;18679;45.190;5.722;2022-08-01T06:55:41;27.10;40.30
32173;DHT22;18679;45.190;5.722;2022-08-01T06:58:42;27.20;40.10
32173;DHT22;18679;45.190;5.722;2022-08-01T07:01:43;27.30;39.90
32173;DHT22;18679;45.190;5.722;2022-08-01T07:04:44;27.50;39.80
32173;DHT22;18679;45.190;5.722;2022-08-01T07:07:45;27.50;39.70
32173;DHT22;18679;45.190;5.722;2022-08-01T07:10:47;27.60;39.70
32173;DHT22;18679;45.190;5.722;2022-08-01T07:13:48;27.80;39.60
32173;DHT22;18679;45.190;5.722;2022-08-01T07:16:50;27.90;39.30
32173;DHT22;18679;45.190;5.722;2022-08-01T07:19:51;28.00;39.20
32173;DHT22;18679;45.190;5.722;2022-08-01T07:22:54;28.20;38.90
32173;DHT22;18679;45.190;5.722;2022-08-01T07:25:55;28.30;38.60
32173;DHT22;18679;45.190;5.722;2022-08-01T07:28:56;28.50;38.20
32173;DHT22;18679;45.190;5.722;2022-08-01T07:31:57;28.60;37.70
32173;DHT22;18679;45.190;5.722;2022-08-01T07:34:58;28.70;37.60
32173;DHT22;18679;45.190;5.722;2022-08-01T07:37:59;28.90;37.50
32173;DHT22;18679;45.190;5.722;2022-08-01T07:41:00;29.00;37.10
32173;DHT22;18679;45.190;5.722;2022-08-01T07:44:02;29.20;36.70
32173;DHT22;18679;45.190;5.722;2022-08-01T07:47:04;29.30;36.40
32173;DHT22;18679;45.190;5.722;2022-08-01T07:50:06;29.40;35.90
32173;DHT22;18679;45.190;5.722;2022-08-01T07:53:07;29.40;35.90
32173;DHT22;18679;45.190;5.722;2022-08-01T07:56:10;29.50;35.90
32173;DHT22;18679;45.190;5.722;2022-08-01T07:59:11;29.60;35.50
32173;DHT22;18679;45.190;5.722;2022-08-01T08:02:12;29.70;35.30
32173;DHT22;18679;45.190;5.722;2022-08-01T08:05:13;29.70;35.10
32173;DHT22;18679;45.190;5.722;2022-08-01T08:08:14;29.80;34.70
32173;DHT22;18679;45.190;5.722;2022-08-01T08:11:16;29.90;34.50
32173;DHT22;18679;45.190;5.722;2022-08-01T08:14:18;30.00;34.20
32173;DHT22;18679;45.190;5.722;2022-08-01T08:17:18;30.10;34.00
32173;DHT22;18679;45.190;5.722;2022-08-01T08:20:20;30.20;33.60
32173;DHT22;18679;45.190;5.722;2022-08-01T08:23:25;30.30;33.50
32173;DHT22;18679;45.190;5.722;2022-08-01T08:26:44;30.40;33.30
32173;DHT22;18679;45.190;5.722;2022-08-01T08:29:45;30.50;33.30
32173;DHT22;18679;45.190;5.722;2022-08-01T08:32:46;30.60;33.10
32173;DHT22;18679;45.190;5.722;2022-08-01T08:35:47;30.70;32.80
32173;DHT22;18679;45.190;5.722;2022-08-01T08:38:48;30.80;32.60
32173;DHT22;18679;45.190;5.722;2022-08-01T08:41:49;30.90;32.40
32173;DHT22;18679;45.190;5.722;2022-08-01T08:44:50;31.00;32.20
32173;DHT22;18679;45.190;5.722;2022-08-01T08:47:52;31.10;32.20
32173;DHT22;18679;45.190;5.722;2022-08-01T08:50:55;31.20;32.10
32173;DHT22;18679;45.190;5.722;2022-08-01T08:53:58;31.30;32.10
32173;DHT22;18679;45.190;5.722;2022-08-01T08:57:00;31.40;32.00
32173;DHT22;18679;45.190;5.722;2022-08-01T09:00:01;31.50;31.90
32173;DHT22;18679;45.190;5.722;2022-08-01T09:03:02;31.60;31.70
32173;DHT22;18679;45.190;5.722;2022-08-01T09:06:03;31.70;31.50
32173;DHT22;18679;45.190;5.722;2022-08-01T09:09:05;31.80;31.30
32173;DHT22;18679;45.190;5.722;2022-08-01T09:12:06;31.90;31.30
32173;DHT22;18679;45.190;5.722;2022-08-01T09:15:07;31.90;31.10
32173;DHT22;18679;45.190;5.722;2022-08-01T09:18:23;32.00;31.20
32173;DHT22;18679;45.190;5.722;2022-08-01T09:21:26;32.00;31.10
32173;DHT22;18679;45.190;5.722;2022-08-01T09:24:31;32.20;30.90
32173;DHT22;18679;45.190;5.722;2022-08-01T09:27:34;32.20;30.70
32173;DHT22;18679;45.190;5.722;2022-08-01T09:30:38;32.20;30.60
32173;DHT22;18679;45.190;5.722;2022-08-01T09:33:56;32.30;30.50
32173;DHT22;18679;45.190;5.722;2022-08-01T09:37:02;32.30;30.40
32173;DHT22;18679;45.190;5.722;2022-08-01T09:40:04;32.40;30.40
32173;DHT22;18679;45.190;5.722;2022-08-01T09:43:11;32.40;30.30
32173;DHT22;18679;45.190;5.722;2022-08-01T09:46:13;32.40;30.10
32173;DHT22;18679;45.190;5.722;2022-08-01T09:49:14;32.50;30.00
32173;DHT22;18679;45.190;5.722;2022-08-01T09:52:17;32.60;29.80
32173;DHT22;18679;45.190;5.722;2022-08-01T09:55:21;32.70;29.70
32173;DHT22;18679;45.190;5.722;2022-08-01T09:58:22;32.70;29.70
32173;DHT22;18679;45.190;5.722;2022-08-01T10:01:23;32.80;29.60
32173;DHT22;18679;45.190;5.722;2022-08-01T10:04:24;32.80;29.60
32173;DHT22;18679;45.190;5.722;2022-08-01T10:07:25;32.80;29.40
32173;DHT22;18679;45.190;5.722;2022-08-01T10:10:26;32.90;29.30
32173;DHT22;18679;45.190;5.722;2022-08-01T10:13:27;32.90;29.20
32173;DHT22;18679;45.190;5.722;2022-08-01T10:16:29;33.00;29.30
32173;DHT22;18679;45.190;5.722;2022-08-01T10:19:30;33.10;29.20
32173;DHT22;18679;45.190;5.722;2022-08-01T10:22:33;33.10;29.10
32173;DHT22;18679;45.190;5.722;2022-08-01T10:25:40;33.30;29.10
32173;DHT22;18679;45.190;5.722;2022-08-01T10:28:44;33.30;29.00
32173;DHT22;18679;45.190;5.722;2022-08-01T10:31:48;33.30;29.00
32173;DHT22;18679;45.190;5.722;2022-08-01T10:34:49;33.30;28.90
32173;DHT22;18679;45.190;5.722;2022-08-01T10:37:51;33.40;28.80
32173;DHT22;18679;45.190;5.722;2022-08-01T10:40:59;33.50;28.90
32173;DHT22;18679;45.190;5.722;2022-08-01T10:44:02;33.60;28.80
32173;DHT22;18679;45.190;5.722;2022-08-01T10:47:09;33.60;28.80
32173;DHT22;18679;45.190;5.722;2022-08-01T10:50:19;33.70;28.70
32173;DHT22;18679;45.190;5.722;2022-08-01T10:53:26;33.80;28.60
32173;DHT22;18679;45.190;5.722;2022-08-01T10:56:44;33.80;28.40
32173;DHT22;18679;45.190;5.722;2022-08-01T10:59:49;33.80;28.30
32173;DHT22;18679;45.190;5.722;2022-08-01T11:03:01;33.90;28.20
32173;DHT22;18679;45.190;5.722;2022-08-01T11:06:04;34.40;27.70
32173;DHT22;18679;45.190;5.722;2022-08-01T11:09:26;35.00;27.20
32173;DHT22;18679;45.190;5.722;2022-08-01T11:12:41;35.60;26.60
32173;DHT22;18679;45.190;5.722;2022-08-01T11:15:42;36.30;26.00
32173;DHT22;18679;45.190;5.722;2022-08-01T11:18:50;36.70;25.60
32173;DHT22;18679;45.190;5.722;2022-08-01T11:24:57;37.30;24.90
32173;DHT22;18679;45.190;5.722;2022-08-01T11:34:17;38.10;23.80
32173;DHT22;18679;45.190;5.722;2022-08-01T11:37:28;38.20;23.70
32173;DHT22;18679;45.190;5.722;2022-08-01T11:40:29;38.20;23.30
32173;DHT22;18679;45.190;5.722;2022-08-01T11:43:30;38.40;23.10
32173;DHT22;18679;45.190;5.722;2022-08-01T11:49:51;38.90;22.80
32173;DHT22;18679;45.190;5.722;2022-08-01T11:52:59;38.90;22.40
32173;DHT22;18679;45.190;5.722;2022-08-01T11:56:01;39.00;22.30
32173;DHT22;18679;45.190;5.722;2022-08-01T11:59:02;39.00;22.90
32173;DHT22;18679;45.190;5.722;2022-08-01T12:02:04;38.50;22.60
32173;DHT22;18679;45.190;5.722;2022-08-01T12:05:09;38.30;22.80
32173;DHT22;18679;45.190;5.722;2022-08-01T12:08:10;38.20;22.70
32173;DHT22;18679;45.190;5.722;2022-08-01T12:11:11;38.40;22.50
32173;DHT22;18679;45.190;5.722;2022-08-01T12:14:17;38.30;22.50
32173;DHT22;18679;45.190;5.722;2022-08-01T12:17:18;38.30;22.30
32173;DHT22;18679;45.190;5.722;2022-08-01T12:20:21;38.60;21.90
32173;DHT22;18679;45.190;5.722;2022-08-01T12:23:22;38.80;21.70
32173;DHT22;18679;45.190;5.722;2022-08-01T12:26:23;38.80;21.70
32173;DHT22;18679;45.190;5.722;2022-08-01T12:29:40;38.70;21.90
32173;DHT22;18679;45.190;5.722;2022-08-01T12:32:43;38.50;22.00
32173;DHT22;18679;45.190;5.722;2022-08-01T12:35:44;38.50;21.90
32173;DHT22;18679;45.190;5.722;2022-08-01T12:38:52;38.60;21.50
32173;DHT22;18679;45.190;5.722;2022-08-01T12:41:53;38.90;21.00
32173;DHT22;18679;45.190;5.722;2022-08-01T12:44:54;39.30;20.80
32173;DHT22;18679;45.190;5.722;2022-08-01T12:47:55;39.60;20.40
32173;DHT22;18679;45.190;5.722;2022-08-01T12:51:00;40.00;20.30
32173;DHT22;18679;45.190;5.722;2022-08-01T12:54:03;40.40;19.90
32173;DHT22;18679;45.190;5.722;2022-08-01T12:57:22;41.00;19.60
32173;DHT22;18679;45.190;5.722;2022-08-01T13:00:25;41.60;19.00
32173;DHT22;18679;45.190;5.722;2022-08-01T13:03:26;42.00;18.70
32173;DHT22;18679;45.190;5.722;2022-08-01T13:06:29;42.20;18.40
32173;DHT22;18679;45.190;5.722;2022-08-01T13:09:30;42.50;18.20
32173;DHT22;18679;45.190;5.722;2022-08-01T13:12:32;42.60;17.90
32173;DHT22;18679;45.190;5.722;2022-08-01T13:15:35;42.90;17.80
32173;DHT22;18679;45.190;5.722;2022-08-01T13:18:37;42.90;17.70
32173;DHT22;18679;45.190;5.722;2022-08-01T13:21:38;43.00;17.70
32173;DHT22;18679;45.190;5.722;2022-08-01T13:24:39;43.30;17.50
32173;DHT22;18679;45.190;5.722;2022-08-01T13:27:40;43.70;17.10
32173;DHT22;18679;45.190;5.722;2022-08-01T13:31:00;44.10;16.50
32173;DHT22;18679;45.190;5.722;2022-08-01T13:34:02;44.70;16.20
32173;DHT22;18679;45.190;5.722;2022-08-01T13:37:03;45.20;15.90
32173;DHT22;18679;45.190;5.722;2022-08-01T13:40:09;45.40;15.40
32173;DHT22;18679;45.190;5.722;2022-08-01T13:43:10;45.90;15.20
32173;DHT22;18679;45.190;5.722;2022-08-01T13:46:11;46.30;14.70
32173;DHT22;18679;45.190;5.722;2022-08-01T13:49:12;46.80;14.40
32173;DHT22;18679;45.190;5.722;2022-08-01T13:52:13;46.90;14.30
32173;DHT22;18679;45.190;5.722;2022-08-01T13:55:14;46.90;14.20
32173;DHT22;18679;45.190;5.722;2022-08-01T13:58:15;47.10;13.90
32173;DHT22;18679;45.190;5.722;2022-08-01T14:01:16;47.30;13.70
32173;DHT22;18679;45.190;5.722;2022-08-01T14:04:17;47.40;13.80
32173;DHT22;18679;45.190;5.722;2022-08-01T14:07:18;47.10;13.50
32173;DHT22;18679;45.190;5.722;2022-08-01T14:10:19;47.10;13.60
32173;DHT22;18679;45.190;5.722;2022-08-01T14:13:20;47.30;13.50
32173;DHT22;18679;45.190;5.722;2022-08-01T14:16:21;47.70;13.30
32173;DHT22;18679;45.190;5.722;2022-08-01T14:19:22;47.90;13.10
32173;DHT22;18679;45.190;5.722;2022-08-01T14:22:22;48.00;13.10
32173;DHT22;18679;45.190;5.722;2022-08-01T14:25:23;48.00;13.00
32173;DHT22;18679;45.190;5.722;2022-08-01T14:28:24;48.00;12.80
32173;DHT22;18679;45.190;5.722;2022-08-01T14:31:27;48.00;12.80
32173;DHT22;18679;45.190;5.722;2022-08-01T14:34:29;48.10;13.30
32173;DHT22;18679;45.190;5.722;2022-08-01T14:37:31;48.20;12.70
32173;DHT22;18679;45.190;5.722;2022-08-01T14:40:32;48.20;12.80
32173;DHT22;18679;45.190;5.722;2022-08-01T14:43:33;48.50;13.00
32173;DHT22;18679;45.190;5.722;2022-08-01T14:46:34;48.60;12.80
32173;DHT22;18679;45.190;5.722;2022-08-01T14:49:34;48.80;12.60
32173;DHT22;18679;45.190;5.722;2022-08-01T14:52:37;48.80;12.60
32173;DHT22;18679;45.190;5.722;2022-08-01T14:55:38;48.60;12.70
32173;DHT22;18679;45.190;5.722;2022-08-01T14:58:39;47.20;13.20
32173;DHT22;18679;45.190;5.722;2022-08-01T15:01:40;45.60;14.10
32173;DHT22;18679;45.190;5.722;2022-08-01T15:04:41;44.30;14.90
32173;DHT22;18679;45.190;5.722;2022-08-01T15:07:42;43.10;15.40
32173;DHT22;18679;45.190;5.722;2022-08-01T15:10:43;42.30;16.00
32173;DHT22;18679;45.190;5.722;2022-08-01T15:13:44;41.50;16.30
32173;DHT22;18679;45.190;5.722;2022-08-01T15:16:44;40.80;16.70
32173;DHT22;18679;45.190;5.722;2022-08-01T15:19:47;40.20;17.00
32173;DHT22;18679;45.190;5.722;2022-08-01T15:22:49;39.70;17.30
32173;DHT22;18679;45.190;5.722;2022-08-01T15:25:50;39.40;17.50
32173;DHT22;18679;45.190;5.722;2022-08-01T15:28:51;39.10;17.70
32173;DHT22;18679;45.190;5.722;2022-08-01T15:31:52;39.70;17.40
32173;DHT22;18679;45.190;5.722;2022-08-01T15:34:53;41.10;16.50
32173;DHT22;18679;45.190;5.722;2022-08-01T15:37:55;42.30;15.60
32173;DHT22;18679;45.190;5.722;2022-08-01T15:40:56;43.40;14.90
32173;DHT22;18679;45.190;5.722;2022-08-01T15:43:57;44.30;14.90
32173;DHT22;18679;45.190;5.722;2022-08-01T15:46:58;45.00;13.90
32173;DHT22;18679;45.190;5.722;2022-08-01T15:49:59;45.50;13.60
32173;DHT22;18679;45.190;5.722;2022-08-01T15:53:01;46.10;13.20
32173;DHT22;18679;45.190;5.722;2022-08-01T15:56:02;46.30;12.90
32173;DHT22;18679;45.190;5.722;2022-08-01T15:59:04;46.30;13.20
32173;DHT22;18679;45.190;5.722;2022-08-01T16:02:05;46.10;13.50
32173;DHT22;18679;45.190;5.722;2022-08-01T16:05:07;46.00;13.50
32173;DHT22;18679;45.190;5.722;2022-08-01T16:08:08;46.10;13.40
32173;DHT22;18679;45.190;5.722;2022-08-01T16:11:09;45.80;13.60
32173;DHT22;18679;45.190;5.722;2022-08-01T16:14:10;46.00;13.40
32173;DHT22;18679;45.190;5.722;2022-08-01T16:17:11;46.20;13.10
32173;DHT22;18679;45.190;5.722;2022-08-01T16:20:12;46.00;13.50
32173;DHT22;18679;45.190;5.722;2022-08-01T16:23:14;45.70;13.60
32173;DHT22;18679;45.190;5.722;2022-08-01T16:26:16;45.20;13.80
32173;DHT22;18679;45.190;5.722;2022-08-01T16:29:17;44.80;13.90
32173;DHT22;18679;45.190;5.722;2022-08-01T16:32:17;44.80;13.80
32173;DHT22;18679;45.190;5.722;2022-08-01T16:35:19;44.60;14.10
32173;DHT22;18679;45.190;5.722;2022-08-01T16:38:20;44.30;13.80
32173;DHT22;18679;45.190;5.722;2022-08-01T16:41:23;44.10;14.00
32173;DHT22;18679;45.190;5.722;2022-08-01T16:44:24;44.00;14.00
32173;DHT22;18679;45.190;5.722;2022-08-01T16:47:25;43.10;14.70
32173;DHT22;18679;45.190;5.722;2022-08-01T16:50:26;41.90;15.20
32173;DHT22;18679;45.190;5.722;2022-08-01T16:53:26;40.60;16.00
32173;DHT22;18679;45.190;5.722;2022-08-01T16:56:27;39.50;16.60
32173;DHT22;18679;45.190;5.722;2022-08-01T16:59:28;38.70;17.30
32173;DHT22;18679;45.190;5.722;2022-08-01T17:02:30;38.00;17.80
32173;DHT22;18679;45.190;5.722;2022-08-01T17:05:31;37.40;18.40
32173;DHT22;18679;45.190;5.722;2022-08-01T17:08:33;37.00;18.80
32173;DHT22;18679;45.190;5.722;2022-08-01T17:11:34;36.50;19.20
32173;DHT22;18679;45.190;5.722;2022-08-01T17:14:34;36.10;19.50
32173;DHT22;18679;45.190;5.722;2022-08-01T17:17:39;35.80;19.80
32173;DHT22;18679;45.190;5.722;2022-08-01T17:20:40;35.50;20.10
32173;DHT22;18679;45.190;5.722;2022-08-01T17:23:43;35.20;20.40
32173;DHT22;18679;45.190;5.722;2022-08-01T17:26:43;35.10;20.60
32173;DHT22;18679;45.190;5.722;2022-08-01T17:29:44;35.00;20.70
32173;DHT22;18679;45.190;5.722;2022-08-01T17:32:45;34.90;21.00
32173;DHT22;18679;45.190;5.722;2022-08-01T17:35:47;34.80;21.10
32173;DHT22;18679;45.190;5.722;2022-08-01T17:38:48;34.70;21.30
32173;DHT22;18679;45.190;5.722;2022-08-01T17:41:49;34.60;21.40
32173;DHT22;18679;45.190;5.722;2022-08-01T17:44:50;34.50;21.40
32173;DHT22;18679;45.190;5.722;2022-08-01T17:47:51;34.50;21.60
32173;DHT22;18679;45.190;5.722;2022-08-01T17:50:52;34.50;21.70
32173;DHT22;18679;45.190;5.722;2022-08-01T17:53:53;34.40;21.80
32173;DHT22;18679;45.190;5.722;2022-08-01T17:56:54;34.30;21.90
32173;DHT22;18679;45.190;5.722;2022-08-01T17:59:56;34.20;22.10
32173;DHT22;18679;45.190;5.722;2022-08-01T18:02:58;34.20;22.30
32173;DHT22;18679;45.190;5.722;2022-08-01T18:05:59;34.00;22.30
32173;DHT22;18679;45.190;5.722;2022-08-01T18:08:59;34.10;22.50
32173;DHT22;18679;45.190;5.722;2022-08-01T18:12:01;34.00;22.60
32173;DHT22;18679;45.190;5.722;2022-08-01T18:15:02;34.00;22.60
32173;DHT22;18679;45.190;5.722;2022-08-01T18:18:05;33.90;22.50
32173;DHT22;18679;45.190;5.722;2022-08-01T18:21:07;33.90;22.40
32173;DHT22;18679;45.190;5.722;2022-08-01T18:24:08;33.90;22.40
32173;DHT22;18679;45.190;5.722;2022-08-01T18:27:09;33.90;22.50
32173;DHT22;18679;45.190;5.722;2022-08-01T18:30:10;33.90;22.60
32173;DHT22;18679;45.190;5.722;2022-08-01T18:33:11;33.80;22.90
32173;DHT22;18679;45.190;5.722;2022-08-01T18:36:12;33.70;23.00
32173;DHT22;18679;45.190;5.722;2022-08-01T18:39:13;33.60;23.00
32173;DHT22;18679;45.190;5.722;2022-08-01T18:42:14;33.50;23.10
32173;DHT22;18679;45.190;5.722;2022-08-01T18:45:15;33.50;23.10
32173;DHT22;18679;45.190;5.722;2022-08-01T18:48:16;33.50;23.10
32173;DHT22;18679;45.190;5.722;2022-08-01T18:51:17;33.60;23.10
32173;DHT22;18679;45.190;5.722;2022-08-01T18:54:17;33.60;23.00
32173;DHT22;18679;45.190;5.722;2022-08-01T18:57:18;33.70;23.10
32173;DHT22;18679;45.190;5.722;2022-08-01T19:00:19;33.60;23.30
32173;DHT22;18679;45.190;5.722;2022-08-01T19:03:20;33.60;23.40
32173;DHT22;18679;45.190;5.722;2022-08-01T19:06:21;33.50;23.40
32173;DHT22;18679;45.190;5.722;2022-08-01T19:09:22;33.50;23.70
32173;DHT22;18679;45.190;5.722;2022-08-01T19:12:23;33.40;23.80
32173;DHT22;18679;45.190;5.722;2022-08-01T19:15:24;33.30;23.90
32173;DHT22;18679;45.190;5.722;2022-08-01T19:18:25;33.30;24.10
32173;DHT22;18679;45.190;5.722;2022-08-01T19:21:27;33.30;24.20
32173;DHT22;18679;45.190;5.722;2022-08-01T19:24:28;33.20;24.40
32173;DHT22;18679;45.190;5.722;2022-08-01T19:27:29;33.20;24.60
32173;DHT22;18679;45.190;5.722;2022-08-01T19:30:32;33.10;24.80
32173;DHT22;18679;45.190;5.722;2022-08-01T19:33:37;33.00;24.90
32173;DHT22;18679;45.190;5.722;2022-08-01T19:36:39;33.00;25.10
32173;DHT22;18679;45.190;5.722;2022-08-01T19:39:43;32.90;25.20